Time;durP1;ratioP1;P1;durP2;ratioP2;P2;SDS_P1;SDS_P2;PMS_P1;PMS_P2;Temp;Humidity;BMP_temperature;BMP_pressure;BME280_temperature;BME280_humidity;BME280_pressure;Samples;Min_cycle;Max_cycle;Signal;HPM_P1;HPM_P2
2021/08/01 00:01:23;;;;;;;8.60;6.65;;;;;;;;;;4898194;29;20029;-77
2021/08/01 00:03:52;;;;;;;6.65;5.95;;;;;;;;;;4898271;29;20032;-80
2021/08/01 00:06:18;;;;;;;8.88;6.60;;;;;;;;;;4898541;29;20056;-81
2021/08/01 00:08:43;;;;;;;12.10;7.07;;;;;;;;;;4898508;29;20472;-79
2021/08/01 00:11:09;;;;;;;8.88;6.80;;;;;;;;;;4898504;29;20032;-80
2021/08/01 00:13:35;;;;;;;7.97;5.90;;;;;;;;;;4898667;29;20045;-80
2021/08/01 00:16:01;;;;;;;8.02;6.20;;;;;;;;;;4902213;29;20025;-79
2021/08/01 00:18:26;;;;;;;7.20;5.70;;;;;;;;;;4902245;29;20123;-78
2021/08/01 00:20:52;;;;;;;5.88;5.00;;;;;;;;;;4901994;29;20112;-78
2021/08/01 00:23:17;;;;;;;7.47;5.85;;;;;;;;;;4901976;29;20149;-78
2021/08/01 00:25:43;;;;;;;8.98;5.38;;;;;;;;;;4901954;29;20251;-78
2021/08/01 00:28:08;;;;;;;6.35;5.68;;;;;;;;;;4901822;29;20047;-78
2021/08/01 00:30:34;;;;;;;6.25;5.57;;;;;;;;;;4901997;29;20066;-78
2021/08/01 00:33:00;;;;;;;6.18;5.55;;;;;;;;;;4902195;29;20080;-78
2021/08/01 00:35:26;;;;;;;7.00;5.38;;;;;;;;;;4901913;29;20027;-77
2021/08/01 00:37:51;;;;;;;5.72;5.13;;;;;;;;;;4901627;29;20033;-78
2021/08/01 00:40:19;;;;;;;7.07;5.63;;;;;;;;;;4901469;29;20088;-79
2021/08/01 00:42:45;;;;;;;7.57;5.63;;;;;;;;;;4884670;29;20064;-78
2021/08/01 00:45:11;;;;;;;6.05;5.25;;;;;;;;;;4901822;29;20060;-78
2021/08/01 00:47:37;;;;;;;8.02;5.78;;;;;;;;;;4901542;29;20029;-78
2021/08/01 00:50:07;;;;;;;5.40;4.90;;;;;;;;;;4901399;29;20059;-78
2021/08/01 00:52:34;;;;;;;5.63;4.97;;;;;;;;;;4901557;29;20152;-78
2021/08/01 00:54:59;;;;;;;5.95;5.28;;;;;;;;;;4901447;29;20028;-78
2021/08/01 00:57:25;;;;;;;7.43;5.50;;;;;;;;;;4901405;29;20040;-77
2021/08/01 00:59:50;;;;;;;7.47;5.28;;;;;;;;;;4901628;29;20048;-78
2021/08/01 01:02:18;;;;;;;7.75;5.38;;;;;;;;;;4901285;29;20107;-78
2021/08/01 01:05:00;;;;;;;6.72;5.38;;;;;;;;;;4901245;29;20036;-78
2021/08/01 01:07:39;;;;;;;7.45;5.35;;;;;;;;;;4901091;29;20496;-78
2021/08/01 01:10:14;;;;;;;6.20;5.03;;;;;;;;;;4901301;29;20036;-78
2021/08/01 01:12:44;;;;;;;6.68;5.30;;;;;;;;;;4900995;29;20092;-78
2021/08/01 01:15:16;;;;;;;7.93;5.60;;;;;;;;;;4901265;29;20033;-78
2021/08/01 01:17:43;;;;;;;8.85;5.53;;;;;;;;;;4900965;29;20122;-78
2021/08/01 01:20:18;;;;;;;6.55;5.57;;;;;;;;;;4901011;29;20088;-78
2021/08/01 01:22:59;;;;;;;8.35;5.05;;;;;;;;;;4900877;29;20036;-78
2021/08/01 01:25:42;;;;;;;6.53;5.00;;;;;;;;;;4883718;29;20410;-78
2021/08/01 01:28:18;;;;;;;5.93;5.03;;;;;;;;;;4900609;29;20124;-78
2021/08/01 01:30:51;;;;;;;7.07;5.75;;;;;;;;;;4901025;29;20367;-78
2021/08/01 01:33:22;;;;;;;6.00;5.30;;;;;;;;;;4900679;29;20055;-79
2021/08/01 01:35:53;;;;;;;8.30;5.47;;;;;;;;;;4900688;29;20021;-78
2021/08/01 01:38:20;;;;;;;8.07;5.68;;;;;;;;;;4900592;29;20036;-79
2021/08/01 01:40:46;;;;;;;6.95;5.05;;;;;;;;;;4900438;29;20032;-77
2021/08/01 01:43:12;;;;;;;6.65;5.28;;;;;;;;;;4900709;29;20388;-78
2021/08/01 01:45:37;;;;;;;6.88;5.60;;;;;;;;;;4900689;29;20035;-78
2021/08/01 01:48:03;;;;;;;7.25;5.65;;;;;;;;;;4900669;29;20029;-79
2021/08/01 01:50:29;;;;;;;5.95;5.30;;;;;;;;;;4883729;29;20028;-79
2021/08/01 01:52:55;;;;;;;5.50;4.90;;;;;;;;;;4900340;29;20036;-79
2021/08/01 01:55:23;;;;;;;7.05;5.45;;;;;;;;;;4900286;29;20108;-80
2021/08/01 01:57:49;;;;;;;7.13;5.00;;;;;;;;;;4900483;29;20029;-78
2021/08/01 02:00:15;;;;;;;7.38;5.80;;;;;;;;;;4900291;29;20366;-77
2021/08/01 02:02:41;;;;;;;6.88;4.95;;;;;;;;;;4900515;29;20035;-78
2021/08/01 02:05:07;;;;;;;6.90;5.75;;;;;;;;;;4900485;29;20033;-78
2021/08/01 02:07:32;;;;;;;10.68;5.30;;;;;;;;;;4899803;29;20060;-78
2021/08/01 02:10:13;;;;;;;8.80;5.53;;;;;;;;;;4900007;29;20455;-77
2021/08/01 02:12:50;;;;;;;7.43;5.40;;;;;;;;;;4900106;29;20036;-79
2021/08/01 02:15:18;;;;;;;6.65;5.28;;;;;;;;;;4900391;29;20379;-78
2021/08/01 02:17:50;;;;;;;6.73;5.37;;;;;;;;;;4900125;29;20033;-78
2021/08/01 02:20:19;;;;;;;7.45;5.30;;;;;;;;;;4899722;29;20037;-78
2021/08/01 02:22:46;;;;;;;6.38;5.72;;;;;;;;;;4900067;29;20034;-79
2021/08/01 02:25:15;;;;;;;8.68;5.85;;;;;;;;;;4900033;29;20060;-78
2021/08/01 02:27:42;;;;;;;5.85;5.25;;;;;;;;;;4899816;29;20407;-79
2021/08/01 02:30:08;;;;;;;7.22;5.40;;;;;;;;;;4899924;29;20127;-80
2021/08/01 02:32:34;;;;;;;8.20;5.68;;;;;;;;;;4899607;29;20039;-79
2021/08/01 02:35:07;;;;;;;6.82;5.60;;;;;;;;;;4890755;29;20107;-77
2021/08/01 02:37:35;;;;;;;6.10;5.50;;;;;;;;;;4803715;29;20029;-78
2021/08/01 02:40:01;;;;;;;6.10;5.47;;;;;;;;;;4899641;29;20028;-81
2021/08/01 02:42:28;;;;;;;8.98;5.72;;;;;;;;;;4899508;29;20031;-81
2021/08/01 02:44:58;;;;;;;7.75;5.53;;;;;;;;;;4899619;29;20035;-81
2021/08/01 02:47:26;;;;;;;7.85;5.85;;;;;;;;;;4899217;29;20635;-80
2021/08/01 02:49:54;;;;;;;8.57;5.88;;;;;;;;;;4899583;29;20036;-81
2021/08/01 02:52:37;;;;;;;9.68;5.93;;;;;;;;;;4899589;29;20401;-81
2021/08/01 02:55:04;;;;;;;8.05;5.60;;;;;;;;;;4899242;29;20387;-81
2021/08/01 02:57:32;;;;;;;8.73;5.78;;;;;;;;;;4899407;29;20487;-81
2021/08/01 03:00:00;;;;;;;6.65;5.78;;;;;;;;;;4899393;29;20036;-81
2021/08/01 03:02:26;;;;;;;8.23;5.72;;;;;;;;;;4899024;29;20024;-81
2021/08/01 03:04:52;;;;;;;6.82;5.35;;;;;;;;;;4898983;29;20031;-81
2021/08/01 03:07:18;;;;;;;9.65;5.75;;;;;;;;;;4898885;29;20044;-81
2021/08/01 03:09:44;;;;;;;6.40;5.38;;;;;;;;;;4899258;29;20492;-80
2021/08/01 03:12:11;;;;;;;6.72;6.03;;;;;;;;;;4899388;29;20507;-80
2021/08/01 03:14:37;;;;;;;9.50;5.35;;;;;;;;;;4899204;29;20029;-78
2021/08/01 03:17:03;;;;;;;7.75;5.38;;;;;;;;;;4899123;29;20036;-79
2021/08/01 03:19:28;;;;;;;7.40;5.85;;;;;;;;;;4899020;29;20040;-78
2021/08/01 03:21:54;;;;;;;11.15;7.00;;;;;;;;;;4898823;29;20029;-78
2021/08/01 03:24:19;;;;;;;6.95;5.72;;;;;;;;;;4898865;29;20030;-78
2021/08/01 03:26:45;;;;;;;7.63;5.60;;;;;;;;;;4882132;29;20510;-78
2021/08/01 03:29:10;;;;;;;7.63;5.70;;;;;;;;;;4898617;29;20427;-78
2021/08/01 03:31:35;;;;;;;7.93;5.55;;;;;;;;;;4898754;29;20535;-78
2021/08/01 03:34:01;;;;;;;6.15;5.55;;;;;;;;;;4898804;29;20040;-78
2021/08/01 03:36:26;;;;;;;9.32;5.35;;;;;;;;;;4898714;29;20058;-78
2021/08/01 03:38:52;;;;;;;7.57;6.35;;;;;;;;;;4898587;29;20040;-78
2021/08/01 03:41:17;;;;;;;8.75;5.50;;;;;;;;;;4898563;29;20464;-78
2021/08/01 03:43:42;;;;;;;8.07;5.35;;;;;;;;;;4898319;29;20033;-78
2021/08/01 03:46:08;;;;;;;9.43;6.60;;;;;;;;;;4898698;29;20028;-78
2021/08/01 03:48:33;;;;;;;7.43;5.72;;;;;;;;;;4898370;29;20043;-79
2021/08/01 03:50:59;;;;;;;7.38;6.30;;;;;;;;;;4898507;29;20087;-78
2021/08/01 03:53:24;;;;;;;8.55;5.82;;;;;;;;;;4898657;29;20033;-78
2021/08/01 03:55:50;;;;;;;6.60;5.90;;;;;;;;;;4898361;29;20025;-79
2021/08/01 03:58:15;;;;;;;6.13;5.25;;;;;;;;;;4898321;29;20028;-78
2021/08/01 04:00:47;;;;;;;6.90;5.72;;;;;;;;;;4898629;29;20469;-78
2021/08/01 04:03:13;;;;;;;7.03;5.82;;;;;;;;;;4898362;29;20028;-78
2021/08/01 04:05:39;;;;;;;7.15;6.18;;;;;;;;;;4898254;29;20380;-78
2021/08/01 04:08:04;;;;;;;9.15;5.60;;;;;;;;;;4898076;29;20056;-77
2021/08/01 04:10:30;;;;;;;6.65;5.95;;;;;;;;;;4898584;29;20103;-78
2021/08/01 04:12:56;;;;;;;8.35;6.00;;;;;;;;;;4898143;29;20029;-78
2021/08/01 04:15:21;;;;;;;9.13;6.05;;;;;;;;;;4898234;29;20461;-78
2021/08/01 04:17:46;;;;;;;7.90;5.38;;;;;;;;;;4898401;29;20032;-77
2021/08/01 04:20:12;;;;;;;6.97;5.53;;;;;;;;;;4898493;29;20036;-78
2021/08/01 04:22:37;;;;;;;7.63;5.22;;;;;;;;;;4898388;29;20032;-78
2021/08/01 04:25:04;;;;;;;7.15;5.28;;;;;;;;;;4898327;29;20025;-78
2021/08/01 04:27:29;;;;;;;10.10;5.03;;;;;;;;;;4898112;29;20033;-78
2021/08/01 04:29:54;;;;;;;6.25;5.15;;;;;;;;;;4898093;29;20369;-78
2021/08/01 04:32:20;;;;;;;6.00;5.18;;;;;;;;;;4898276;29;20469;-78
2021/08/01 04:34:45;;;;;;;6.18;5.07;;;;;;;;;;4898229;29;20032;-78
2021/08/01 04:37:10;;;;;;;6.28;5.45;;;;;;;;;;4898112;29;20032;-79
2021/08/01 04:39:36;;;;;;;6.03;5.03;;;;;;;;;;4898136;29;20499;-78
2021/08/01 04:42:01;;;;;;;6.63;5.03;;;;;;;;;;4897819;29;20116;-78
2021/08/01 04:44:27;;;;;;;9.57;5.28;;;;;;;;;;4898181;29;20476;-78
2021/08/01 04:46:52;;;;;;;10.60;5.72;;;;;;;;;;4897961;29;20025;-79
2021/08/01 04:49:18;;;;;;;8.55;5.47;;;;;;;;;;4898171;29;20039;-78
2021/08/01 04:51:46;;;;;;;6.40;5.40;;;;;;;;;;4898447;29;20029;-79
2021/08/01 04:54:12;;;;;;;7.20;5.70;;;;;;;;;;4912630;29;20029;-77
2021/08/01 04:56:37;;;;;;;7.82;5.53;;;;;;;;;;4897729;29;20491;-78
2021/08/01 04:59:03;;;;;;;6.30;5.18;;;;;;;;;;4897854;29;20032;-78
2021/08/01 05:01:28;;;;;;;6.15;5.03;;;;;;;;;;4899320;29;20025;-78
2021/08/01 05:03:53;;;;;;;8.75;5.68;;;;;;;;;;4901165;29;20119;-78
2021/08/01 05:06:19;;;;;;;9.07;5.68;;;;;;;;;;4901200;29;20069;-78
2021/08/01 05:08:44;;;;;;;6.78;5.35;;;;;;;;;;4911773;29;20480;-77
2021/08/01 05:11:10;;;;;;;7.45;5.55;;;;;;;;;;4919951;29;20032;-78
2021/08/01 05:13:35;;;;;;;9.82;5.88;;;;;;;;;;4919874;29;20032;-79
2021/08/01 05:16:01;;;;;;;7.18;5.88;;;;;;;;;;4919990;29;20498;-79
2021/08/01 05:18:26;;;;;;;7.55;5.90;;;;;;;;;;4919796;29;20036;-81
2021/08/01 05:20:52;;;;;;;7.35;6.00;;;;;;;;;;4920067;29;20028;-80
2021/08/01 05:23:17;;;;;;;6.78;5.68;;;;;;;;;;4919853;29;20070;-80
2021/08/01 05:25:43;;;;;;;6.32;5.72;;;;;;;;;;4919779;29;20383;-80
2021/08/01 05:28:08;;;;;;;7.32;5.97;;;;;;;;;;4902590;29;20068;-80
2021/08/01 05:30:34;;;;;;;9.30;7.00;;;;;;;;;;4919690;29;20040;-79
2021/08/01 05:33:10;;;;;;;6.70;6.00;;;;;;;;;;4919740;29;20475;-80
2021/08/01 05:35:36;;;;;;;7.88;6.05;;;;;;;;;;4919649;29;20084;-80
2021/08/01 05:38:02;;;;;;;7.57;5.80;;;;;;;;;;4919467;29;20032;-80
2021/08/01 05:40:27;;;;;;;5.97;5.22;;;;;;;;;;4919617;29;20034;-80
2021/08/01 05:42:53;;;;;;;7.90;5.43;;;;;;;;;;4919575;29;20039;-80
2021/08/01 05:45:18;;;;;;;7.40;5.90;;;;;;;;;;4919482;29;20032;-80
2021/08/01 05:47:44;;;;;;;7.53;5.63;;;;;;;;;;4919413;29;20040;-80
2021/08/01 05:50:09;;;;;;;7.63;5.30;;;;;;;;;;4919291;29;20039;-81
2021/08/01 05:52:36;;;;;;;6.50;4.95;;;;;;;;;;4919273;29;20090;-80
2021/08/01 05:55:01;;;;;;;7.03;5.10;;;;;;;;;;4919298;29;20111;-81
2021/08/01 05:57:27;;;;;;;7.47;5.18;;;;;;;;;;4919283;29;20100;-81
2021/08/01 05:59:52;;;;;;;10.75;6.30;;;;;;;;;;4919448;29;20028;-80
2021/08/01 06:02:18;;;;;;;7.15;6.00;;;;;;;;;;4918930;29;20472;-81
2021/08/01 06:04:43;;;;;;;6.68;5.28;;;;;;;;;;4919453;29;20028;-80
2021/08/01 06:07:09;;;;;;;7.53;5.15;;;;;;;;;;4919074;29;20043;-79
2021/08/01 06:09:34;;;;;;;8.52;5.55;;;;;;;;;;4918837;29;20036;-79
2021/08/01 06:12:00;;;;;;;7.20;5.32;;;;;;;;;;4918350;29;20036;-77
2021/08/01 06:14:25;;;;;;;8.13;5.78;;;;;;;;;;4918460;29;20147;-77
2021/08/01 06:16:51;;;;;;;6.15;5.35;;;;;;;;;;4919167;29;20127;-77
2021/08/01 06:19:16;;;;;;;5.90;4.95;;;;;;;;;;4918891;29;20036;-78
2021/08/01 06:21:42;;;;;;;6.88;5.30;;;;;;;;;;4913186;29;20029;-78
2021/08/01 06:24:08;;;;;;;9.25;5.75;;;;;;;;;;4907637;29;20428;-78
2021/08/01 06:26:33;;;;;;;5.68;5.03;;;;;;;;;;4909662;29;20024;-78
2021/08/01 06:28:59;;;;;;;7.70;5.65;;;;;;;;;;4908221;29;20067;-78
2021/08/01 06:31:24;;;;;;;7.47;5.18;;;;;;;;;;4908750;29;20032;-78
2021/08/01 06:33:50;;;;;;;6.88;5.22;;;;;;;;;;4909258;29;20433;-78
2021/08/01 06:36:16;;;;;;;6.45;5.75;;;;;;;;;;4907621;29;20096;-77
2021/08/01 06:38:43;;;;;;;6.65;4.97;;;;;;;;;;4908741;29;20072;-77
2021/08/01 06:41:09;;;;;;;5.15;4.60;;;;;;;;;;4892301;29;20464;-77
2021/08/01 06:43:35;;;;;;;4.88;4.45;;;;;;;;;;4907363;29;20176;-77
2021/08/01 06:46:00;;;;;;;5.30;4.72;;;;;;;;;;4907015;29;20479;-78
2021/08/01 06:48:26;;;;;;;8.52;5.50;;;;;;;;;;4903552;29;20037;-78
2021/08/01 06:50:52;;;;;;;6.72;5.43;;;;;;;;;;4899347;29;20028;-77
2021/08/01 06:53:18;;;;;;;6.45;5.20;;;;;;;;;;4899199;29;20037;-78
2021/08/01 06:55:44;;;;;;;8.18;4.50;;;;;;;;;;4899285;29;20025;-84
2021/08/01 06:58:10;;;;;;;6.05;4.90;;;;;;;;;;4899209;29;20035;-82
2021/08/01 07:00:36;;;;;;;7.53;5.03;;;;;;;;;;4882332;29;20025;-79
2021/08/01 07:03:02;;;;;;;7.00;5.07;;;;;;;;;;4907219;29;20027;-80
2021/08/01 07:05:29;;;;;;;5.82;5.15;;;;;;;;;;4909692;29;20032;-79
2021/08/01 07:07:55;;;;;;;7.03;5.35;;;;;;;;;;4906647;29;20128;-82
2021/08/01 07:10:22;;;;;;;5.28;4.78;;;;;;;;;;4908454;29;20440;-77
2021/08/01 07:12:48;;;;;;;5.68;5.10;;;;;;;;;;4891244;29;20025;-78
2021/08/01 07:15:16;;;;;;;7.10;4.75;;;;;;;;;;4906568;29;20032;-79
2021/08/01 07:17:41;;;;;;;6.47;5.40;;;;;;;;;;4915014;29;20036;-80
2021/08/01 07:20:12;;;;;;;6.40;4.65;;;;;;;;;;4918002;29;20502;-80
2021/08/01 07:22:39;;;;;;;7.20;4.85;;;;;;;;;;4917617;29;20032;-77
2021/08/01 07:25:05;;;;;;;5.38;4.85;;;;;;;;;;4917232;29;20032;-79
2021/08/01 07:27:31;;;;;;;7.13;5.10;;;;;;;;;;4917852;29;20044;-82
2021/08/01 07:29:56;;;;;;;6.32;5.13;;;;;;;;;;4917677;29;20040;-85
2021/08/01 07:32:22;;;;;;;6.47;4.70;;;;;;;;;;4917900;29;20128;-80
2021/08/01 07:34:48;;;;;;;6.97;4.68;;;;;;;;;;4917524;29;20039;-86
2021/08/01 07:37:17;;;;;;;4.88;4.47;;;;;;;;;;4917944;29;20027;-86
2021/08/01 07:39:43;;;;;;;6.18;4.50;;;;;;;;;;4901508;29;20028;-84
2021/08/01 07:42:10;;;;;;;6.72;5.25;;;;;;;;;;4917391;29;20368;-81
2021/08/01 07:44:46;;;;;;;6.88;5.25;;;;;;;;;;4917117;29;20388;-80
2021/08/01 07:47:16;;;;;;;6.40;4.43;;;;;;;;;;4901363;29;20047;-80
2021/08/01 07:49:42;;;;;;;6.43;4.68;;;;;;;;;;4917399;29;20039;-78
2021/08/01 07:52:07;;;;;;;5.50;4.72;;;;;;;;;;4917440;29;20032;-79
2021/08/01 07:54:32;;;;;;;4.63;4.22;;;;;;;;;;4917291;29;20498;-78
2021/08/01 07:56:58;;;;;;;6.50;4.90;;;;;;;;;;4917318;29;20480;-83
2021/08/01 07:59:23;;;;;;;5.90;4.53;;;;;;;;;;4917663;29;20062;-81
2021/08/01 08:01:49;;;;;;;5.63;4.55;;;;;;;;;;4914054;29;20071;-83
2021/08/01 08:04:14;;;;;;;6.65;5.05;;;;;;;;;;4916971;29;20127;-84
2021/08/01 08:06:40;;;;;;;7.40;5.25;;;;;;;;;;4900104;29;20059;-81
2021/08/01 08:09:05;;;;;;;8.25;5.10;;;;;;;;;;4916969;29;20056;-83
2021/08/01 08:11:31;;;;;;;7.47;6.20;;;;;;;;;;4917043;29;20035;-81
2021/08/01 08:13:57;;;;;;;10.55;6.03;;;;;;;;;;4900063;29;20547;-82
2021/08/01 08:16:22;;;;;;;7.90;5.88;;;;;;;;;;4917086;29;20031;-80
2021/08/01 08:18:50;;;;;;;5.25;3.95;;;;;;;;;;4917108;29;20039;-82
2021/08/01 08:21:16;;;;;;;6.78;4.40;;;;;;;;;;4917334;29;20103;-83
2021/08/01 08:23:41;;;;;;;6.25;4.05;;;;;;;;;;4917026;29;20029;-82
2021/08/01 08:26:07;;;;;;;9.43;5.43;;;;;;;;;;4917405;29;20031;-82
2021/08/01 08:28:32;;;;;;;8.30;5.18;;;;;;;;;;4916982;29;20020;-83
2021/08/01 08:30:59;;;;;;;5.82;5.13;;;;;;;;;;4917281;29;20031;-82
2021/08/01 08:33:24;;;;;;;8.40;5.13;;;;;;;;;;4916854;29;20031;-86
2021/08/01 08:35:50;;;;;;;8.80;4.95;;;;;;;;;;4918971;29;20028;-85
2021/08/01 08:38:15;;;;;;;9.13;5.60;;;;;;;;;;4920563;29;20596;-88
2021/08/01 08:40:41;;;;;;;6.25;5.55;;;;;;;;;;4920770;29;20083;-84
2021/08/01 08:43:07;;;;;;;6.20;5.53;;;;;;;;;;4920691;29;20066;-87
2021/08/01 08:45:34;;;;;;;5.65;4.82;;;;;;;;;;4920636;29;20032;-85
2021/08/01 08:48:00;;;;;;;6.03;5.40;;;;;;;;;;4920443;29;20055;-83
2021/08/01 08:50:25;;;;;;;6.80;4.65;;;;;;;;;;4903386;29;20040;-89
2021/08/01 08:53:01;;;;;;;6.68;4.70;;;;;;;;;;4920327;29;20039;-90
2021/08/01 08:55:28;;;;;;;7.00;5.40;;;;;;;;;;4920264;29;20032;-84
2021/08/01 08:58:00;;;;;;;7.90;4.90;;;;;;;;;;4920180;29;20047;-85
2021/08/01 09:00:27;;;;;;;7.78;5.50;;;;;;;;;;4920274;29;20032;-84
2021/08/01 09:02:52;;;;;;;6.97;5.47;;;;;;;;;;4920518;29;20035;-86
2021/08/01 09:05:18;;;;;;;7.43;4.50;;;;;;;;;;4920734;29;20379;-88
2021/08/01 09:07:43;;;;;;;7.78;4.70;;;;;;;;;;4920760;29;20099;-85
2021/08/01 09:10:10;;;;;;;10.32;5.30;;;;;;;;;;4920119;29;20032;-84
2021/08/01 09:12:50;;;;;;;8.52;6.13;;;;;;;;;;4919916;29;20064;-86
2021/08/01 09:15:18;;;;;;;8.27;5.70;;;;;;;;;;4902870;29;20062;-84
2021/08/01 09:17:45;;;;;;;8.68;5.30;;;;;;;;;;4920221;29;20024;-87
2021/08/01 09:20:22;;;;;;;10.38;4.97;;;;;;;;;;4919875;29;20020;-83
2021/08/01 09:23:07;;;;;;;6.80;4.88;;;;;;;;;;4919899;29;20031;-83
2021/08/01 09:25:44;;;;;;;6.57;5.03;;;;;;;;;;4919951;29;20036;-83
2021/08/01 09:28:20;;;;;;;7.53;5.80;;;;;;;;;;4919911;29;20020;-92
2021/08/01 09:30:46;;;;;;;7.70;5.75;;;;;;;;;;4919803;29;20032;-91
2021/08/01 09:33:15;;;;;;;9.50;6.22;;;;;;;;;;4902986;29;20031;-91
2021/08/01 09:35:40;;;;;;;9.75;5.20;;;;;;;;;;4919666;29;20482;-84
2021/08/01 09:38:06;;;;;;;8.27;5.90;;;;;;;;;;4919530;29;20111;-83
2021/08/01 09:40:36;;;;;;;6.85;5.43;;;;;;;;;;4919416;29;20027;-85
2021/08/01 09:43:10;;;;;;;7.55;5.10;;;;;;;;;;4920039;29;20032;-92
2021/08/01 09:45:35;;;;;;;7.38;5.80;;;;;;;;;;4902853;29;20024;-86
2021/08/01 09:48:16;;;;;;;7.68;6.18;;;;;;;;;;4919053;29;20039;-84
2021/08/01 09:51:02;;;;;;;7.32;6.00;;;;;;;;;;4919995;29;20052;-84
2021/08/01 09:53:28;;;;;;;9.10;5.93;;;;;;;;;;4919347;29;20032;-83
2021/08/01 09:56:14;;;;;;;6.45;5.28;;;;;;;;;;4902399;29;20059;-84
2021/08/01 09:58:40;;;;;;;7.47;5.45;;;;;;;;;;4919093;29;20036;-91
2021/08/01 10:01:06;;;;;;;6.45;5.75;;;;;;;;;;4919201;29;20106;-90
2021/08/01 10:03:35;;;;;;;6.50;5.10;;;;;;;;;;4919183;29;20111;-81
2021/08/01 10:06:15;;;;;;;6.50;5.03;;;;;;;;;;4901895;29;20035;-79
2021/08/01 10:08:41;;;;;;;7.30;5.43;;;;;;;;;;4904877;29;20036;-75
2021/08/01 10:11:09;;;;;;;7.40;5.35;;;;;;;;;;4907361;29;20059;-76
2021/08/01 10:13:36;;;;;;;8.98;5.45;;;;;;;;;;4909660;29;20423;-77
2021/08/01 10:16:02;;;;;;;6.85;5.40;;;;;;;;;;4908800;29;20035;-75
2021/08/01 10:18:28;;;;;;;8.95;5.78;;;;;;;;;;4908212;29;20450;-80
2021/08/01 10:20:54;;;;;;;5.97;5.10;;;;;;;;;;4909786;29;20095;-80
2021/08/01 10:23:21;;;;;;;8.27;5.50;;;;;;;;;;4908472;29;20121;-88
2021/08/01 10:25:47;;;;;;;7.85;5.50;;;;;;;;;;4906296;29;20035;-84
2021/08/01 10:28:20;;;;;;;6.82;5.28;;;;;;;;;;4908311;29;20036;-81
2021/08/01 10:30:46;;;;;;;10.52;5.30;;;;;;;;;;4910574;29;20020;-87
2021/08/01 10:33:15;;;;;;;7.55;6.20;;;;;;;;;;4918579;29;20055;-82
2021/08/01 10:35:49;;;;;;;9.95;6.78;;;;;;;;;;4918325;29;20032;-85
2021/08/01 10:38:16;;;;;;;9.00;6.28;;;;;;;;;;4918464;29;20079;-87
2021/08/01 10:40:42;;;;;;;10.95;6.57;;;;;;;;;;4918291;29;20055;-83
2021/08/01 10:43:10;;;;;;;11.10;6.40;;;;;;;;;;4901290;29;20035;-82
2021/08/01 10:45:37;;;;;;;7.85;5.82;;;;;;;;;;4918455;29;20024;-82
2021/08/01 10:48:04;;;;;;;8.85;6.68;;;;;;;;;;4901439;29;20036;-81
2021/08/01 10:50:34;;;;;;;8.00;6.30;;;;;;;;;;4918243;29;20043;-79
2021/08/01 10:53:18;;;;;;;10.40;6.30;;;;;;;;;;4917938;29;20035;-80
2021/08/01 10:55:44;;;;;;;10.02;6.50;;;;;;;;;;4918448;29;20102;-81
2021/08/01 10:58:17;;;;;;;9.40;6.82;;;;;;;;;;4917792;29;20032;-85
2021/08/01 11:00:55;;;;;;;8.45;5.53;;;;;;;;;;4917800;29;20028;-83
2021/08/01 11:03:22;;;;;;;8.27;6.10;;;;;;;;;;4912560;29;20472;-81
2021/08/01 11:05:47;;;;;;;8.48;6.13;;;;;;;;;;4909104;29;20032;-77
2021/08/01 11:08:13;;;;;;;9.65;5.47;;;;;;;;;;4907372;29;20060;-82
2021/08/01 11:10:41;;;;;;;8.45;5.78;;;;;;;;;;4917803;29;20024;-76
2021/08/01 11:13:28;;;;;;;7.97;5.75;;;;;;;;;;4917651;29;20373;-83
2021/08/01 11:15:53;;;;;;;8.10;6.18;;;;;;;;;;4917738;29;20036;-83
2021/08/01 11:18:32;;;;;;;8.70;6.38;;;;;;;;;;4917947;29;20050;-82
2021/08/01 11:21:03;;;;;;;10.90;6.57;;;;;;;;;;4912163;29;20028;-84
2021/08/01 11:23:47;;;;;;;7.97;6.75;;;;;;;;;;4906711;29;20514;-84
2021/08/01 11:26:14;;;;;;;6.50;5.78;;;;;;;;;;4907224;29;20454;-84
2021/08/01 11:28:41;;;;;;;8.63;6.10;;;;;;;;;;4906856;29;20103;-84
2021/08/01 11:31:19;;;;;;;10.43;6.72;;;;;;;;;;4898747;29;20036;-83
2021/08/01 11:33:50;;;;;;;8.65;5.65;;;;;;;;;;4898835;29;20032;-85
2021/08/01 11:36:24;;;;;;;7.20;5.65;;;;;;;;;;4900891;29;20028;-84
2021/08/01 11:38:52;;;;;;;8.05;6.72;;;;;;;;;;4906525;29;20376;-82
2021/08/01 11:41:27;;;;;;;7.85;5.90;;;;;;;;;;4900132;29;20059;-86
2021/08/01 11:44:24;;;;;;;7.18;5.88;;;;;;;;;;4898598;29;20040;-86
2021/08/01 11:46:50;;;;;;;12.35;6.43;;;;;;;;;;4898100;29;20041;-79
2021/08/01 11:49:26;;;;;;;8.55;6.13;;;;;;;;;;4898273;29;20035;-82
2021/08/01 11:51:54;;;;;;;8.60;5.50;;;;;;;;;;4898967;29;20028;-78
2021/08/01 11:54:30;;;;;;;7.20;5.80;;;;;;;;;;4898727;29;20028;-80
2021/08/01 11:57:15;;;;;;;6.22;5.38;;;;;;;;;;4908061;29;20047;-80
2021/08/01 11:59:46;;;;;;;7.80;5.75;;;;;;;;;;4896256;29;20387;-75
2021/08/01 12:02:14;;;;;;;7.72;6.25;;;;;;;;;;4917715;29;20119;-81
2021/08/01 12:04:52;;;;;;;10.57;7.68;;;;;;;;;;4917752;29;20020;-76
2021/08/01 12:07:17;;;;;;;6.60;5.90;;;;;;;;;;4908438;29;20563;-79
2021/08/01 12:09:43;;;;;;;9.88;6.85;;;;;;;;;;4899860;29;20402;-75
2021/08/01 12:12:10;;;;;;;9.25;6.70;;;;;;;;;;4885691;29;20472;-75
2021/08/01 12:14:37;;;;;;;6.63;5.78;;;;;;;;;;4902602;29;20088;-82
2021/08/01 12:17:14;;;;;;;8.55;5.40;;;;;;;;;;4903075;29;20032;-85
2021/08/01 12:19:47;;;;;;;6.00;5.03;;;;;;;;;;4902417;29;20108;-77
2021/08/01 12:22:26;;;;;;;6.03;5.43;;;;;;;;;;4902528;29;20025;-80
2021/08/01 12:25:00;;;;;;;5.53;5.03;;;;;;;;;;4906760;29;20431;-76
2021/08/01 12:27:31;;;;;;;5.45;4.88;;;;;;;;;;4912426;29;20039;-76
2021/08/01 12:30:07;;;;;;;7.82;5.68;;;;;;;;;;4920489;29;20492;-75
2021/08/01 12:32:44;;;;;;;8.13;6.22;;;;;;;;;;4903725;29;20025;-79
2021/08/01 12:35:11;;;;;;;8.18;6.28;;;;;;;;;;4920550;29;20457;-77
2021/08/01 12:38:02;;;;;;;7.65;6.00;;;;;;;;;;4903521;29;20035;-82
2021/08/01 12:40:27;;;;;;;8.43;5.80;;;;;;;;;;4920711;29;20387;-83
2021/08/01 12:43:07;;;;;;;8.00;6.28;;;;;;;;;;4920581;29;20111;-88
2021/08/01 12:45:38;;;;;;;8.07;5.78;;;;;;;;;;4920529;29;20032;-86
2021/08/01 12:48:05;;;;;;;5.97;5.38;;;;;;;;;;4920276;29;20412;-77
2021/08/01 12:50:32;;;;;;;7.00;6.30;;;;;;;;;;4920463;29;20036;-86
2021/08/01 12:52:59;;;;;;;9.30;7.25;;;;;;;;;;4920501;29;20099;-80
2021/08/01 12:55:25;;;;;;;6.85;5.70;;;;;;;;;;4920626;29;20029;-82
2021/08/01 12:58:05;;;;;;;10.52;5.65;;;;;;;;;;4920405;29;20028;-84
2021/08/01 13:00:31;;;;;;;7.50;5.88;;;;;;;;;;4920269;29;20036;-86
2021/08/01 13:02:58;;;;;;;9.70;5.68;;;;;;;;;;4920477;29;20040;-84
2021/08/01 13:05:27;;;;;;;6.60;5.43;;;;;;;;;;4920578;29;20028;-86
2021/08/01 13:07:53;;;;;;;6.55;5.60;;;;;;;;;;4920129;29;20044;-83
2021/08/01 13:10:18;;;;;;;7.25;5.78;;;;;;;;;;4919996;29;20054;-79
2021/08/01 13:13:19;;;;;;;6.85;5.38;;;;;;;;;;4920171;29;20028;-87
2021/08/01 13:15:51;;;;;;;11.38;6.40;;;;;;;;;;4843062;29;20179;-84
2021/08/01 13:18:27;;;;;;;6.40;5.43;;;;;;;;;;4891562;29;20068;-85
2021/08/01 13:20:53;;;;;;;6.45;5.85;;;;;;;;;;4901185;29;20060;-83
2021/08/01 13:23:41;;;;;;;7.82;6.53;;;;;;;;;;4899673;29;20063;-84
2021/08/01 13:26:31;;;;;;;10.73;6.63;;;;;;;;;;4901162;29;20025;-83
2021/08/01 13:29:07;;;;;;;6.93;6.07;;;;;;;;;;4900946;29;20433;-80
2021/08/01 13:31:47;;;;;;;7.65;6.82;;;;;;;;;;4900653;29;20029;-78
2021/08/01 13:34:21;;;;;;;9.93;6.97;;;;;;;;;;4900873;29;20381;-83
2021/08/01 13:36:53;;;;;;;7.95;5.85;;;;;;;;;;4900993;29;20038;-84
2021/08/01 13:39:21;;;;;;;7.55;6.57;;;;;;;;;;4900839;29;20428;-82
2021/08/01 13:42:17;;;;;;;10.48;8.02;;;;;;;;;;4900768;29;20068;-84
2021/08/01 13:44:43;;;;;;;9.23;6.40;;;;;;;;;;4881061;29;20036;-80
2021/08/01 13:47:17;;;;;;;9.77;6.85;;;;;;;;;;4900813;29;20032;-85
2021/08/01 13:50:06;;;;;;;9.38;7.38;;;;;;;;;;4900728;29;20028;-86
2021/08/01 13:52:32;;;;;;;9.32;6.75;;;;;;;;;;4900430;29;20024;-81
2021/08/01 13:55:00;;;;;;;8.73;6.57;;;;;;;;;;4900404;29;20032;-83
2021/08/01 13:57:27;;;;;;;8.80;7.50;;;;;;;;;;4900551;29;20033;-83
2021/08/01 13:59:57;;;;;;;6.88;5.90;;;;;;;;;;4883554;29;20417;-83
2021/08/01 14:02:25;;;;;;;8.57;5.95;;;;;;;;;;4900165;29;20060;-84
2021/08/01 14:04:51;;;;;;;6.38;5.25;;;;;;;;;;4900501;29;20028;-83
2021/08/01 14:07:17;;;;;;;6.18;5.47;;;;;;;;;;4900245;29;20045;-79
2021/08/01 14:09:43;;;;;;;7.05;5.35;;;;;;;;;;4900411;29;20055;-83
2021/08/01 14:12:09;;;;;;;5.88;4.82;;;;;;;;;;4900104;29;20362;-81
2021/08/01 14:14:34;;;;;;;7.07;4.72;;;;;;;;;;4899865;29;20088;-87
2021/08/01 14:17:01;;;;;;;8.30;5.22;;;;;;;;;;4904427;29;20028;-84
2021/08/01 14:19:26;;;;;;;6.82;5.15;;;;;;;;;;4912958;29;20036;-83
2021/08/01 14:21:52;;;;;;;6.05;4.95;;;;;;;;;;4927267;29;20058;-81
2021/08/01 14:24:19;;;;;;;6.40;5.13;;;;;;;;;;4921982;29;20024;-82
2021/08/01 14:26:48;;;;;;;6.30;5.38;;;;;;;;;;4919531;29;20479;-82
2021/08/01 14:29:15;;;;;;;5.18;4.78;;;;;;;;;;4937328;29;20030;-84
2021/08/01 14:31:45;;;;;;;7.38;5.25;;;;;;;;;;4937469;29;20032;-79
2021/08/01 14:34:13;;;;;;;6.53;5.70;;;;;;;;;;4937245;29;20114;-89
2021/08/01 14:36:39;;;;;;;6.00;5.40;;;;;;;;;;4925409;29;20020;-84
2021/08/01 14:39:10;;;;;;;7.68;5.40;;;;;;;;;;4918239;29;20047;-85
2021/08/01 14:41:36;;;;;;;8.95;5.63;;;;;;;;;;4918352;29;20072;-83
2021/08/01 14:44:03;;;;;;;6.78;5.10;;;;;;;;;;4918092;29;20123;-81
2021/08/01 14:46:30;;;;;;;6.57;5.68;;;;;;;;;;4901069;29;20091;-84
2021/08/01 14:49:09;;;;;;;6.93;5.15;;;;;;;;;;4918382;29;20428;-81
2021/08/01 14:54:25;;;;;;;8.48;5.30;;;;;;;;;;4934992;29;20055;-81